sensor_id;sensor_type;location;lat;lon;timestamp;temperature;humidity
44136;DHT22;29798;51.064;13.734;2022-09-12T00:00:47;15.00;99.90
44136;DHT22;29798;51.064;13.734;2022-09-12T00:03:13;15.00;99.90
44136;DHT22;29798;51.064;13.734;2022-09-12T00:05:42;15.00;99.90
44136;DHT22;29798;51.064;13.734;2022-09-12T00:08:09;14.90;99.90
44136;DHT22;29798;51.064;13.734;2022-09-12T00:10:38;14.90;99.90
44136;DHT22;29798;51.064;13.734;2022-09-12T00:13:05;14.90;99.90
44136;DHT22;29798;51.064;13.734;2022-09-12T00:15:31;14.90;99.90
44136;DHT22;29798;51.064;13.734;2022-09-12T00:17:57;14.90;99.90
44136;DHT22;29798;51.064;13.734;2022-09-12T00:20:26;14.80;99.90
44136;DHT22;29798;51.064;13.734;2022-09-12T00:22:52;14.90;99.90
44136;DHT22;29798;51.064;13.734;2022-09-12T00:25:17;14.90;99.90
44136;DHT22;29798;51.064;13.734;2022-09-12T00:27:43;14.90;99.90
44136;DHT22;29798;51.064;13.734;2022-09-12T00:30:09;14.90;99.90
44136;DHT22;29798;51.064;13.734;2022-09-12T00:32:35;14.90;99.90
44136;DHT22;29798;51.064;13.734;2022-09-12T00:35:00;14.90;99.90
44136;DHT22;29798;51.064;13.734;2022-09-12T00:37:27;14.80;99.90
44136;DHT22;29798;51.064;13.734;2022-09-12T00:39:53;14.80;99.90
44136;DHT22;29798;51.064;13.734;2022-09-12T00:42:18;14.80;99.90
44136;DHT22;29798;51.064;13.734;2022-09-12T00:44:45;14.80;99.90
44136;DHT22;29798;51.064;13.734;2022-09-12T00:47:13;14.80;99.90
44136;DHT22;29798;51.064;13.734;2022-09-12T00:49:44;14.70;99.90
44136;DHT22;29798;51.064;13.734;2022-09-12T00:52:19;14.70;99.90
44136;DHT22;29798;51.064;13.734;2022-09-12T00:57:35;14.60;99.90
44136;DHT22;29798;51.064;13.734;2022-09-12T01:00:07;14.60;99.90
44136;DHT22;29798;51.064;13.734;2022-09-12T01:02:42;14.50;99.90
44136;DHT22;29798;51.064;13.734;2022-09-12T01:05:08;14.50;99.90
44136;DHT22;29798;51.064;13.734;2022-09-12T01:07:35;14.50;99.90
44136;DHT22;29798;51.064;13.734;2022-09-12T01:10:02;14.40;99.90
44136;DHT22;29798;51.064;13.734;2022-09-12T01:12:29;14.40;99.90
44136;DHT22;29798;51.064;13.734;2022-09-12T01:14:55;14.30;99.90
44136;DHT22;29798;51.064;13.734;2022-09-12T01:17:21;14.30;99.90
44136;DHT22;29798;51.064;13.734;2022-09-12T01:25:37;14.20;99.90
44136;DHT22;29798;51.064;13.734;2022-09-12T01:31:05;14.20;99.90
44136;DHT22;29798;51.064;13.734;2022-09-12T01:33:43;14.30;99.90
44136;DHT22;29798;51.064;13.734;2022-09-12T01:39:01;14.30;99.90
44136;DHT22;29798;51.064;13.734;2022-09-12T01:49:36;14.30;99.90
44136;DHT22;29798;51.064;13.734;2022-09-12T01:52:11;14.30;99.90
44136;DHT22;29798;51.064;13.734;2022-09-12T01:54:42;14.30;99.90
44136;DHT22;29798;51.064;13.734;2022-09-12T01:57:20;14.30;99.90
44136;DHT22;29798;51.064;13.734;2022-09-12T01:59:51;14.30;99.90
44136;DHT22;29798;51.064;13.734;2022-09-12T02:02:21;14.30;99.90
44136;DHT22;29798;51.064;13.734;2022-09-12T02:04:56;14.20;99.90
44136;DHT22;29798;51.064;13.734;2022-09-12T02:10:14;14.40;99.90
44136;DHT22;29798;51.064;13.734;2022-09-12T02:12:43;14.30;99.90
44136;DHT22;29798;51.064;13.734;2022-09-12T02:15:12;14.30;99.90
44136;DHT22;29798;51.064;13.734;2022-09-12T02:17:43;14.30;99.90
44136;DHT22;29798;51.064;13.734;2022-09-12T02:22:43;14.30;99.90
44136;DHT22;29798;51.064;13.734;2022-09-12T02:25:09;14.30;99.90
44136;DHT22;29798;51.064;13.734;2022-09-12T02:27:39;14.20;99.90
44136;DHT22;29798;51.064;13.734;2022-09-12T02:30:07;14.20;99.90
44136;DHT22;29798;51.064;13.734;2022-09-12T02:35:01;14.20;99.90
44136;DHT22;29798;51.064;13.734;2022-09-12T02:37:42;14.30;99.90
44136;DHT22;29798;51.064;13.734;2022-09-12T02:40:13;14.30;99.90
44136;DHT22;29798;51.064;13.734;2022-09-12T02:42:39;14.30;99.90
44136;DHT22;29798;51.064;13.734;2022-09-12T02:45:05;14.20;99.90
44136;DHT22;29798;51.064;13.734;2022-09-12T02:47:38;14.20;99.90
44136;DHT22;29798;51.064;13.734;2022-09-12T02:50:12;14.10;99.90
44136;DHT22;29798;51.064;13.734;2022-09-12T02:52:38;14.10;99.90
44136;DHT22;29798;51.064;13.734;2022-09-12T02:55:05;14.00;99.90
44136;DHT22;29798;51.064;13.734;2022-09-12T02:57:31;14.00;99.90
44136;DHT22;29798;51.064;13.734;2022-09-12T02:59:58;14.00;99.90
44136;DHT22;29798;51.064;13.734;2022-09-12T03:05:26;14.10;99.90
44136;DHT22;29798;51.064;13.734;2022-09-12T03:16:34;14.10;99.90
44136;DHT22;29798;51.064;13.734;2022-09-12T03:19:21;14.10;99.90
44136;DHT22;29798;51.064;13.734;2022-09-12T03:24:42;14.10;99.90
44136;DHT22;29798;51.064;13.734;2022-09-12T03:27:26;14.20;99.90
44136;DHT22;29798;51.064;13.734;2022-09-12T03:29:55;14.20;99.90
44136;DHT22;29798;51.064;13.734;2022-09-12T03:35:06;14.20;99.90
44136;DHT22;29798;51.064;13.734;2022-09-12T03:37:32;14.20;99.90
44136;DHT22;29798;51.064;13.734;2022-09-12T03:39:57;14.30;99.90
44136;DHT22;29798;51.064;13.734;2022-09-12T03:42:23;14.20;99.90
44136;DHT22;29798;51.064;13.734;2022-09-12T03:44:49;14.20;99.90
44136;DHT22;29798;51.064;13.734;2022-09-12T03:47:14;14.20;99.90
44136;DHT22;29798;51.064;13.734;2022-09-12T03:49:40;14.20;99.90
44136;DHT22;29798;51.064;13.734;2022-09-12T03:52:06;14.20;99.90
44136;DHT22;29798;51.064;13.734;2022-09-12T03:54:32;14.20;99.90
44136;DHT22;29798;51.064;13.734;2022-09-12T03:56:57;14.20;99.90
44136;DHT22;29798;51.064;13.734;2022-09-12T03:59:23;14.20;99.90
44136;DHT22;29798;51.064;13.734;2022-09-12T04:01:49;14.20;99.90
44136;DHT22;29798;51.064;13.734;2022-09-12T04:04:15;14.20;99.90
44136;DHT22;29798;51.064;13.734;2022-09-12T04:06:40;14.20;99.90
44136;DHT22;29798;51.064;13.734;2022-09-12T04:09:07;14.20;99.90
44136;DHT22;29798;51.064;13.734;2022-09-12T04:11:33;14.20;99.90
44136;DHT22;29798;51.064;13.734;2022-09-12T04:14:00;14.30;99.90
44136;DHT22;29798;51.064;13.734;2022-09-12T04:16:25;14.30;99.90
44136;DHT22;29798;51.064;13.734;2022-09-12T04:18:51;14.30;99.90
44136;DHT22;29798;51.064;13.734;2022-09-12T04:21:17;14.30;99.90
44136;DHT22;29798;51.064;13.734;2022-09-12T04:23:44;14.30;99.90
44136;DHT22;29798;51.064;13.734;2022-09-12T04:26:10;14.30;99.90
44136;DHT22;29798;51.064;13.734;2022-09-12T04:28:37;14.30;99.90
44136;DHT22;29798;51.064;13.734;2022-09-12T04:31:05;14.30;99.90
44136;DHT22;29798;51.064;13.734;2022-09-12T04:33:33;14.30;99.90
44136;DHT22;29798;51.064;13.734;2022-09-12T04:36:10;14.30;99.90
44136;DHT22;29798;51.064;13.734;2022-09-12T04:38:41;14.30;99.90
44136;DHT22;29798;51.064;13.734;2022-09-12T04:43:46;14.40;99.90
44136;DHT22;29798;51.064;13.734;2022-09-12T04:46:16;14.40;99.90
44136;DHT22;29798;51.064;13.734;2022-09-12T04:48:44;14.40;99.90
44136;DHT22;29798;51.064;13.734;2022-09-12T04:51:12;14.40;99.90
44136;DHT22;29798;51.064;13.734;2022-09-12T04:53:49;14.50;99.90
44136;DHT22;29798;51.064;13.734;2022-09-12T04:56:16;14.30;99.90
44136;DHT22;29798;51.064;13.734;2022-09-12T04:58:42;14.40;99.90
44136;DHT22;29798;51.064;13.734;2022-09-12T05:01:09;14.30;99.90
44136;DHT22;29798;51.064;13.734;2022-09-12T05:03:36;14.40;99.90
44136;DHT22;29798;51.064;13.734;2022-09-12T05:06:04;14.40;99.90
44136;DHT22;29798;51.064;13.734;2022-09-12T05:08:31;14.50;99.90
44136;DHT22;29798;51.064;13.734;2022-09-12T05:11:00;14.50;99.90
44136;DHT22;29798;51.064;13.734;2022-09-12T05:13:28;14.50;99.90
44136;DHT22;29798;51.064;13.734;2022-09-12T05:15:54;14.50;99.90
44136;DHT22;29798;51.064;13.734;2022-09-12T05:18:20;14.60;99.90
44136;DHT22;29798;51.064;13.734;2022-09-12T05:20:46;14.60;99.90
44136;DHT22;29798;51.064;13.734;2022-09-12T05:23:12;13.90;99.90
44136;DHT22;29798;51.064;13.734;2022-09-12T05:25:37;14.60;99.90
44136;DHT22;29798;51.064;13.734;2022-09-12T05:28:03;14.70;99.90
44136;DHT22;29798;51.064;13.734;2022-09-12T05:30:29;14.70;99.90
44136;DHT22;29798;51.064;13.734;2022-09-12T05:32:55;14.70;99.90
44136;DHT22;29798;51.064;13.734;2022-09-12T05:35:21;14.70;99.90
44136;DHT22;29798;51.064;13.734;2022-09-12T05:37:47;14.70;99.90
44136;DHT22;29798;51.064;13.734;2022-09-12T05:40:12;14.80;99.90
44136;DHT22;29798;51.064;13.734;2022-09-12T05:42:41;14.80;99.90
44136;DHT22;29798;51.064;13.734;2022-09-12T05:45:07;14.80;99.90
44136;DHT22;29798;51.064;13.734;2022-09-12T05:47:33;14.80;99.90
44136;DHT22;29798;51.064;13.734;2022-09-12T05:50:00;14.90;99.90
44136;DHT22;29798;51.064;13.734;2022-09-12T05:52:26;15.00;99.90
44136;DHT22;29798;51.064;13.734;2022-09-12T05:54:51;15.00;99.90
44136;DHT22;29798;51.064;13.734;2022-09-12T05:57:17;15.10;99.90
44136;DHT22;29798;51.064;13.734;2022-09-12T05:59:43;15.20;99.90
44136;DHT22;29798;51.064;13.734;2022-09-12T06:02:09;15.20;99.90
44136;DHT22;29798;51.064;13.734;2022-09-12T06:04:35;15.30;99.90
44136;DHT22;29798;51.064;13.734;2022-09-12T06:07:01;15.30;99.90
44136;DHT22;29798;51.064;13.734;2022-09-12T06:09:27;15.30;99.90
44136;DHT22;29798;51.064;13.734;2022-09-12T06:11:52;15.40;99.90
44136;DHT22;29798;51.064;13.734;2022-09-12T06:14:20;15.40;99.90
44136;DHT22;29798;51.064;13.734;2022-09-12T06:16:46;15.50;99.90
44136;DHT22;29798;51.064;13.734;2022-09-12T06:19:14;15.60;99.90
44136;DHT22;29798;51.064;13.734;2022-09-12T06:21:43;15.60;99.90
44136;DHT22;29798;51.064;13.734;2022-09-12T06:24:09;15.60;99.90
44136;DHT22;29798;51.064;13.734;2022-09-12T06:26:35;15.60;99.90
44136;DHT22;29798;51.064;13.734;2022-09-12T06:29:01;15.70;99.90
44136;DHT22;29798;51.064;13.734;2022-09-12T06:31:28;15.80;99.90
44136;DHT22;29798;51.064;13.734;2022-09-12T06:33:58;15.90;99.90
44136;DHT22;29798;51.064;13.734;2022-09-12T06:36:28;16.00;99.90
44136;DHT22;29798;51.064;13.734;2022-09-12T06:39:03;16.20;99.90
44136;DHT22;29798;51.064;13.734;2022-09-12T06:41:34;16.30;99.90
44136;DHT22;29798;51.064;13.734;2022-09-12T06:44:00;16.40;99.90
44136;DHT22;29798;51.064;13.734;2022-09-12T06:46:26;16.40;99.90
44136;DHT22;29798;51.064;13.734;2022-09-12T06:48:54;16.50;99.90
44136;DHT22;29798;51.064;13.734;2022-09-12T06:51:20;16.50;99.90
44136;DHT22;29798;51.064;13.734;2022-09-12T06:53:46;16.60;99.90
44136;DHT22;29798;51.064;13.734;2022-09-12T06:56:13;16.80;99.90
44136;DHT22;29798;51.064;13.734;2022-09-12T06:58:46;16.90;99.90
44136;DHT22;29798;51.064;13.734;2022-09-12T07:01:14;17.00;99.90
44136;DHT22;29798;51.064;13.734;2022-09-12T07:03:48;17.00;99.90
44136;DHT22;29798;51.064;13.734;2022-09-12T07:06:16;17.10;99.90
44136;DHT22;29798;51.064;13.734;2022-09-12T07:08:42;17.20;99.90
44136;DHT22;29798;51.064;13.734;2022-09-12T07:11:19;17.30;99.90
44136;DHT22;29798;51.064;13.734;2022-09-12T07:13:47;17.40;99.90
44136;DHT22;29798;51.064;13.734;2022-09-12T07:16:19;17.50;99.90
44136;DHT22;29798;51.064;13.734;2022-09-12T07:18:48;17.70;99.90
44136;DHT22;29798;51.064;13.734;2022-09-12T07:21:15;17.60;99.90
44136;DHT22;29798;51.064;13.734;2022-09-12T07:23:41;17.70;99.90
44136;DHT22;29798;51.064;13.734;2022-09-12T07:26:09;17.70;99.90
44136;DHT22;29798;51.064;13.734;2022-09-12T07:28:35;17.80;99.90
44136;DHT22;29798;51.064;13.734;2022-09-12T07:31:08;17.80;99.90
44136;DHT22;29798;51.064;13.734;2022-09-12T07:33:35;17.90;99.90
44136;DHT22;29798;51.064;13.734;2022-09-12T07:36:05;18.00;99.90
44136;DHT22;29798;51.064;13.734;2022-09-12T07:38:33;18.00;99.90
44136;DHT22;29798;51.064;13.734;2022-09-12T07:40:59;18.00;99.90
44136;DHT22;29798;51.064;13.734;2022-09-12T07:43:26;18.00;99.90
44136;DHT22;29798;51.064;13.734;2022-09-12T07:45:55;18.10;99.90
44136;DHT22;29798;51.064;13.734;2022-09-12T07:48:21;18.10;99.90
44136;DHT22;29798;51.064;13.734;2022-09-12T07:50:55;18.20;99.90
44136;DHT22;29798;51.064;13.734;2022-09-12T07:53:23;18.20;99.90
44136;DHT22;29798;51.064;13.734;2022-09-12T07:55:55;18.30;99.90
44136;DHT22;29798;51.064;13.734;2022-09-12T07:58:22;18.40;99.90
44136;DHT22;29798;51.064;13.734;2022-09-12T08:00:48;18.50;99.90
44136;DHT22;29798;51.064;13.734;2022-09-12T08:03:14;18.50;99.90
44136;DHT22;29798;51.064;13.734;2022-09-12T08:05:40;18.70;99.90
44136;DHT22;29798;51.064;13.734;2022-09-12T08:08:06;18.80;99.90
44136;DHT22;29798;51.064;13.734;2022-09-12T08:10:32;18.90;99.90
44136;DHT22;29798;51.064;13.734;2022-09-12T08:12:57;18.90;99.90
44136;DHT22;29798;51.064;13.734;2022-09-12T08:15:23;19.10;99.90
44136;DHT22;29798;51.064;13.734;2022-09-12T08:17:49;19.10;99.90
44136;DHT22;29798;51.064;13.734;2022-09-12T08:20:15;19.00;99.90
44136;DHT22;29798;51.064;13.734;2022-09-12T08:22:42;18.90;99.90
44136;DHT22;29798;51.064;13.734;2022-09-12T08:25:08;18.90;99.90
44136;DHT22;29798;51.064;13.734;2022-09-12T08:27:34;18.80;99.90
44136;DHT22;29798;51.064;13.734;2022-09-12T08:30:00;18.80;99.90
44136;DHT22;29798;51.064;13.734;2022-09-12T08:32:26;18.80;99.90
44136;DHT22;29798;51.064;13.734;2022-09-12T08:34:52;18.90;99.90
44136;DHT22;29798;51.064;13.734;2022-09-12T08:37:18;18.90;99.90
44136;DHT22;29798;51.064;13.734;2022-09-12T08:39:44;18.80;99.90
44136;DHT22;29798;51.064;13.734;2022-09-12T08:42:09;18.80;99.90
44136;DHT22;29798;51.064;13.734;2022-09-12T08:47:35;18.90;99.90
44136;DHT22;29798;51.064;13.734;2022-09-12T08:57:46;19.40;99.90
44136;DHT22;29798;51.064;13.734;2022-09-12T09:00:12;19.50;99.90
44136;DHT22;29798;51.064;13.734;2022-09-12T09:08:14;19.70;99.90
44136;DHT22;29798;51.064;13.734;2022-09-12T09:10:46;19.70;99.90
44136;DHT22;29798;51.064;13.734;2022-09-12T09:13:32;19.90;99.90
44136;DHT22;29798;51.064;13.734;2022-09-12T09:16:39;20.10;99.90
44136;DHT22;29798;51.064;13.734;2022-09-12T09:19:14;20.10;99.90
44136;DHT22;29798;51.064;13.734;2022-09-12T09:21:44;20.10;99.90
44136;DHT22;29798;51.064;13.734;2022-09-12T09:24:18;20.10;99.90
44136;DHT22;29798;51.064;13.734;2022-09-12T09:26:49;20.10;99.90
44136;DHT22;29798;51.064;13.734;2022-09-12T09:29:29;20.20;99.90
44136;DHT22;29798;51.064;13.734;2022-09-12T09:31:59;20.20;99.90
44136;DHT22;29798;51.064;13.734;2022-09-12T09:34:27;20.20;99.90
44136;DHT22;29798;51.064;13.734;2022-09-12T09:45:11;20.70;99.90
44136;DHT22;29798;51.064;13.734;2022-09-12T09:47:41;21.30;99.90
44136;DHT22;29798;51.064;13.734;2022-09-12T09:50:11;22.00;99.90
44136;DHT22;29798;51.064;13.734;2022-09-12T09:52:41;22.50;99.90
44136;DHT22;29798;51.064;13.734;2022-09-12T09:55:11;23.10;99.90
44136;DHT22;29798;51.064;13.734;2022-09-12T09:57:40;23.20;99.90
44136;DHT22;29798;51.064;13.734;2022-09-12T10:00:20;23.40;99.90
44136;DHT22;29798;51.064;13.734;2022-09-12T10:05:53;23.30;99.90
44136;DHT22;29798;51.064;13.734;2022-09-12T10:08:46;22.90;99.90
44136;DHT22;29798;51.064;13.734;2022-09-12T10:16:33;24.50;99.90
44136;DHT22;29798;51.064;13.734;2022-09-12T10:19:01;25.40;99.90
44136;DHT22;29798;51.064;13.734;2022-09-12T10:21:32;25.50;99.90
44136;DHT22;29798;51.064;13.734;2022-09-12T10:24:23;25.30;99.90
44136;DHT22;29798;51.064;13.734;2022-09-12T10:26:52;24.90;99.90
44136;DHT22;29798;51.064;13.734;2022-09-12T10:29:21;24.60;99.90
44136;DHT22;29798;51.064;13.734;2022-09-12T10:31:50;24.20;99.90
44136;DHT22;29798;51.064;13.734;2022-09-12T10:34:20;23.90;99.90
44136;DHT22;29798;51.064;13.734;2022-09-12T10:36:48;23.70;99.90
44136;DHT22;29798;51.064;13.734;2022-09-12T10:39:17;23.30;99.90
44136;DHT22;29798;51.064;13.734;2022-09-12T10:41:44;23.20;99.90
44136;DHT22;29798;51.064;13.734;2022-09-12T10:44:17;23.40;99.90
44136;DHT22;29798;51.064;13.734;2022-09-12T10:46:51;23.70;99.90
44136;DHT22;29798;51.064;13.734;2022-09-12T10:49:19;23.80;99.90
44136;DHT22;29798;51.064;13.734;2022-09-12T10:51:50;23.80;99.90
44136;DHT22;29798;51.064;13.734;2022-09-12T10:54:19;23.80;99.90
44136;DHT22;29798;51.064;13.734;2022-09-12T10:56:51;24.00;99.90
44136;DHT22;29798;51.064;13.734;2022-09-12T10:59:29;24.70;99.90
44136;DHT22;29798;51.064;13.734;2022-09-12T11:03:01;25.30;99.90
44136;DHT22;29798;51.064;13.734;2022-09-12T11:05:30;26.30;99.90
44136;DHT22;29798;51.064;13.734;2022-09-12T11:10:57;28.00;99.90
44136;DHT22;29798;51.064;13.734;2022-09-12T11:27:24;29.80;93.90
44136;DHT22;29798;51.064;13.734;2022-09-12T11:42:44;30.50;88.90
44136;DHT22;29798;51.064;13.734;2022-09-12T11:45:16;30.80;89.40
44136;DHT22;29798;51.064;13.734;2022-09-12T11:47:46;30.90;90.30
44136;DHT22;29798;51.064;13.734;2022-09-12T11:50:18;30.40;90.50
44136;DHT22;29798;51.064;13.734;2022-09-12T11:52:47;29.80;93.30
44136;DHT22;29798;51.064;13.734;2022-09-12T11:55:18;29.30;95.00
44136;DHT22;29798;51.064;13.734;2022-09-12T11:57:54;29.40;94.90
44136;DHT22;29798;51.064;13.734;2022-09-12T12:00:26;29.30;94.90
44136;DHT22;29798;51.064;13.734;2022-09-12T12:03:05;26.80;94.10
44136;DHT22;29798;51.064;13.734;2022-09-12T12:05:38;28.20;95.00
44136;DHT22;29798;51.064;13.734;2022-09-12T12:08:07;27.10;96.80
44136;DHT22;29798;51.064;13.734;2022-09-12T12:10:37;26.60;97.50
44136;DHT22;29798;51.064;13.734;2022-09-12T12:15:54;27.30;97.80
44136;DHT22;29798;51.064;13.734;2022-09-12T12:18:22;27.50;97.30
44136;DHT22;29798;51.064;13.734;2022-09-12T12:20:49;27.80;97.10
44136;DHT22;29798;51.064;13.734;2022-09-12T12:23:23;27.90;96.80
44136;DHT22;29798;51.064;13.734;2022-09-12T12:25:52;27.40;97.20
44136;DHT22;29798;51.064;13.734;2022-09-12T12:31:09;29.10;95.80
44136;DHT22;29798;51.064;13.734;2022-09-12T12:36:06;30.90;92.00
44136;DHT22;29798;51.064;13.734;2022-09-12T12:38:34;31.30;91.50
44136;DHT22;29798;51.064;13.734;2022-09-12T12:43:45;32.80;91.00
44136;DHT22;29798;51.064;13.734;2022-09-12T12:46:13;31.80;89.10
44136;DHT22;29798;51.064;13.734;2022-09-12T12:48:45;32.40;90.10
44136;DHT22;29798;51.064;13.734;2022-09-12T12:54:02;29.70;87.10
44136;DHT22;29798;51.064;13.734;2022-09-12T12:56:39;32.20;88.30
44136;DHT22;29798;51.064;13.734;2022-09-12T12:59:12;32.70;87.50
44136;DHT22;29798;51.064;13.734;2022-09-12T13:01:59;33.20;85.90
44136;DHT22;29798;51.064;13.734;2022-09-12T13:04:27;33.60;83.10
44136;DHT22;29798;51.064;13.734;2022-09-12T13:09:24;32.80;83.10
44136;DHT22;29798;51.064;13.734;2022-09-12T13:12:03;32.80;83.20
44136;DHT22;29798;51.064;13.734;2022-09-12T13:14:33;33.00;82.70
44136;DHT22;29798;51.064;13.734;2022-09-12T13:17:00;32.50;84.60
44136;DHT22;29798;51.064;13.734;2022-09-12T13:19:31;33.10;83.00
44136;DHT22;29798;51.064;13.734;2022-09-12T13:21:59;33.20;83.20
44136;DHT22;29798;51.064;13.734;2022-09-12T13:24:26;33.10;80.40
44136;DHT22;29798;51.064;13.734;2022-09-12T13:26:52;33.00;80.00
44136;DHT22;29798;51.064;13.734;2022-09-12T13:29:22;32.30;80.80
44136;DHT22;29798;51.064;13.734;2022-09-12T13:31:51;31.70;81.40
44136;DHT22;29798;51.064;13.734;2022-09-12T13:34:19;31.00;83.40
44136;DHT22;29798;51.064;13.734;2022-09-12T13:39:48;30.70;84.80
44136;DHT22;29798;51.064;13.734;2022-09-12T13:47:36;32.70;80.30
44136;DHT22;29798;51.064;13.734;2022-09-12T13:50:07;32.80;79.70
44136;DHT22;29798;51.064;13.734;2022-09-12T13:52:37;32.50;79.80
44136;DHT22;29798;51.064;13.734;2022-09-12T13:55:07;31.50;82.20
44136;DHT22;29798;51.064;13.734;2022-09-12T13:57:43;30.80;84.80
44136;DHT22;29798;51.064;13.734;2022-09-12T14:00:14;30.60;85.20
44136;DHT22;29798;51.064;13.734;2022-09-12T14:02:45;30.30;85.30
44136;DHT22;29798;51.064;13.734;2022-09-12T14:05:13;30.10;86.20
44136;DHT22;29798;51.064;13.734;2022-09-12T14:07:50;29.70;86.30
44136;DHT22;29798;51.064;13.734;2022-09-12T14:10:22;29.10;87.20
44136;DHT22;29798;51.064;13.734;2022-09-12T14:12:51;29.20;88.70
44136;DHT22;29798;51.064;13.734;2022-09-12T14:15:20;29.30;88.60
44136;DHT22;29798;51.064;13.734;2022-09-12T14:17:52;29.20;88.00
44136;DHT22;29798;51.064;13.734;2022-09-12T14:20:20;28.90;89.20
44136;DHT22;29798;51.064;13.734;2022-09-12T14:22:48;27.30;87.90
44136;DHT22;29798;51.064;13.734;2022-09-12T14:25:15;28.40;90.40
44136;DHT22;29798;51.064;13.734;2022-09-12T14:27:44;28.30;91.40
44136;DHT22;29798;51.064;13.734;2022-09-12T14:30:26;28.10;91.10
44136;DHT22;29798;51.064;13.734;2022-09-12T14:35:29;27.30;91.50
44136;DHT22;29798;51.064;13.734;2022-09-12T14:37:56;23.90;91.00
44136;DHT22;29798;51.064;13.734;2022-09-12T14:40:44;26.50;92.80
44136;DHT22;29798;51.064;13.734;2022-09-12T14:43:26;26.40;92.80
44136;DHT22;29798;51.064;13.734;2022-09-12T14:45:55;26.50;92.80
44136;DHT22;29798;51.064;13.734;2022-09-12T14:48:24;26.50;93.40
44136;DHT22;29798;51.064;13.734;2022-09-12T14:50:52;26.30;92.80
44136;DHT22;29798;51.064;13.734;2022-09-12T14:55:45;26.10;92.70
44136;DHT22;29798;51.064;13.734;2022-09-12T14:58:15;26.00;93.40
44136;DHT22;29798;51.064;13.734;2022-09-12T15:00:52;26.10;93.60
44136;DHT22;29798;51.064;13.734;2022-09-12T15:03:23;26.00;93.50
44136;DHT22;29798;51.064;13.734;2022-09-12T15:05:53;25.70;93.60
44136;DHT22;29798;51.064;13.734;2022-09-12T15:08:19;25.60;94.70
44136;DHT22;29798;51.064;13.734;2022-09-12T15:10:45;25.50;95.70
44136;DHT22;29798;51.064;13.734;2022-09-12T15:13:12;25.30;95.80
44136;DHT22;29798;51.064;13.734;2022-09-12T15:18:15;24.80;96.60
44136;DHT22;29798;51.064;13.734;2022-09-12T15:20:42;24.60;97.20
44136;DHT22;29798;51.064;13.734;2022-09-12T15:23:13;24.70;97.10
44136;DHT22;29798;51.064;13.734;2022-09-12T15:25:51;24.60;97.00
44136;DHT22;29798;51.064;13.734;2022-09-12T15:28:18;24.60;97.30
44136;DHT22;29798;51.064;13.734;2022-09-12T15:30:46;24.60;97.90
44136;DHT22;29798;51.064;13.734;2022-09-12T15:33:17;24.60;98.40
44136;DHT22;29798;51.064;13.734;2022-09-12T15:35:44;24.50;98.30
44136;DHT22;29798;51.064;13.734;2022-09-12T15:38:10;24.50;98.10
44136;DHT22;29798;51.064;13.734;2022-09-12T15:40:36;24.40;98.30
44136;DHT22;29798;51.064;13.734;2022-09-12T15:43:02;24.20;99.20
44136;DHT22;29798;51.064;13.734;2022-09-12T15:45:29;24.00;99.90
44136;DHT22;29798;51.064;13.734;2022-09-12T15:47:56;23.90;99.90
44136;DHT22;29798;51.064;13.734;2022-09-12T15:50:22;23.80;99.90
44136;DHT22;29798;51.064;13.734;2022-09-12T15:52:48;23.70;99.90
44136;DHT22;29798;51.064;13.734;2022-09-12T15:55:18;23.40;99.90
44136;DHT22;29798;51.064;13.734;2022-09-12T15:57:48;23.20;99.90
44136;DHT22;29798;51.064;13.734;2022-09-12T16:00:15;23.00;99.90
44136;DHT22;29798;51.064;13.734;2022-09-12T16:02:42;22.70;99.90
44136;DHT22;29798;51.064;13.734;2022-09-12T16:05:17;22.50;99.90
44136;DHT22;29798;51.064;13.734;2022-09-12T16:07:44;22.30;99.90
44136;DHT22;29798;51.064;13.734;2022-09-12T16:10:14;22.10;99.90
44136;DHT22;29798;51.064;13.734;2022-09-12T16:12:41;21.80;99.90
44136;DHT22;29798;51.064;13.734;2022-09-12T16:15:11;21.70;99.90
44136;DHT22;29798;51.064;13.734;2022-09-12T16:17:38;21.50;99.90
44136;DHT22;29798;51.064;13.734;2022-09-12T16:20:04;21.30;99.90
44136;DHT22;29798;51.064;13.734;2022-09-12T16:22:30;21.20;99.90
44136;DHT22;29798;51.064;13.734;2022-09-12T16:24:56;21.10;99.90
44136;DHT22;29798;51.064;13.734;2022-09-12T16:27:22;21.10;99.90
44136;DHT22;29798;51.064;13.734;2022-09-12T16:29:47;21.00;99.90
44136;DHT22;29798;51.064;13.734;2022-09-12T16:32:13;21.00;99.90
44136;DHT22;29798;51.064;13.734;2022-09-12T16:34:39;20.70;99.90
44136;DHT22;29798;51.064;13.734;2022-09-12T16:37:05;20.60;99.90
44136;DHT22;29798;51.064;13.734;2022-09-12T16:39:30;20.50;99.90
44136;DHT22;29798;51.064;13.734;2022-09-12T16:41:56;20.50;99.90
44136;DHT22;29798;51.064;13.734;2022-09-12T16:44:22;20.40;99.90
44136;DHT22;29798;51.064;13.734;2022-09-12T16:46:48;20.40;99.90
44136;DHT22;29798;51.064;13.734;2022-09-12T16:49:14;20.40;99.90
44136;DHT22;29798;51.064;13.734;2022-09-12T16:51:40;20.30;99.90
44136;DHT22;29798;51.064;13.734;2022-09-12T16:54:09;20.20;99.90
44136;DHT22;29798;51.064;13.734;2022-09-12T16:56:35;20.20;99.90
44136;DHT22;29798;51.064;13.734;2022-09-12T16:59:00;20.10;99.90
44136;DHT22;29798;51.064;13.734;2022-09-12T17:01:28;19.90;99.90
44136;DHT22;29798;51.064;13.734;2022-09-12T17:03:54;19.90;99.90
44136;DHT22;29798;51.064;13.734;2022-09-12T17:06:21;19.80;99.90
44136;DHT22;29798;51.064;13.734;2022-09-12T17:08:48;19.80;99.90
44136;DHT22;29798;51.064;13.734;2022-09-12T17:11:16;19.90;99.90
44136;DHT22;29798;51.064;13.734;2022-09-12T17:13:51;19.90;99.90
44136;DHT22;29798;51.064;13.734;2022-09-12T17:16:18;19.80;99.90
44136;DHT22;29798;51.064;13.734;2022-09-12T17:18:44;19.80;99.90
44136;DHT22;29798;51.064;13.734;2022-09-12T17:21:10;19.60;99.90
44136;DHT22;29798;51.064;13.734;2022-09-12T17:23:36;19.60;99.90
44136;DHT22;29798;51.064;13.734;2022-09-12T17:26:03;19.30;99.90
44136;DHT22;29798;51.064;13.734;2022-09-12T17:28:29;19.20;99.90
44136;DHT22;29798;51.064;13.734;2022-09-12T17:31:05;19.00;99.90
44136;DHT22;29798;51.064;13.734;2022-09-12T17:33:32;18.90;99.90
44136;DHT22;29798;51.064;13.734;2022-09-12T17:35:59;18.80;99.90
44136;DHT22;29798;51.064;13.734;2022-09-12T17:38:32;18.70;99.90
44136;DHT22;29798;51.064;13.734;2022-09-12T17:41:03;18.60;99.90
44136;DHT22;29798;51.064;13.734;2022-09-12T17:43:33;18.40;99.90
44136;DHT22;29798;51.064;13.734;2022-09-12T17:46:00;18.40;99.90
44136;DHT22;29798;51.064;13.734;2022-09-12T17:48:26;18.20;99.90
44136;DHT22;29798;51.064;13.734;2022-09-12T17:50:51;18.20;99.90